Skip Navigation Links
NOAA logo - Click to go to the NOAA homepage
NOAA's National Weather Service
Alaska Aviation Weather Unit
  NWS logo - Click to go to the NWS homepage
Left Navbar Graphic     17 AKDT = 01 GMT

   
NOAA is celebrating 200 years of science, service, and stewardship. Visit the NOAA 200th celebration Web site to learn more.
USA.gov is the U.S. Government's official Web portal to all Federal, state and local government Web resources and services.
Facebook
NWS on Facebook

Important Change Regarding the AAWU Web Presence

 

Over the last several months, the AAWU has been working to navigate its webpages to a nationally supported server. Security, as well as other needs, have necessitated the change.  In the process, we have made an effort to enhance the functionality of our website, as well as some of our products. As of June 27, 2017, aawu.arh.noaa.gov will be discontinued. The new AAWU web address is weather.gov/aawu. It is now live and will run in-parallel with the old site until it is discontinued. Please send any feedback or questions regarding the new webpages to nws.ar.aawu.webauthors@noaa.gov.  Thank you for your patience during this time of transition.
AAWU Home :: Display TAF Add Bookmark
METAR PARS 251956Z AUTO VRB03KT 10SM OVC035 17/09 A2994 RMK AO2
 SLP143 T01670094 $=

METAR PARS 252056Z AUTO 18005KT 10SM BKN070 17/10 A2992 RMK AO2 SLP136
     T01670100 58021 $=

METAR PARS 252156Z AUTO 16006KT 10SM CLR 17/10 A2989 RMK AO2 SLP127
 T01720100 $=

METAR PARS 252256Z AUTO 14007KT 10SM CLR 18/10 A2987 RMK AO2 SLP119
 T01780100 $=

METAR PARS 252356Z AUTO 00000KT 10SM CLR 19/09 A2984 RMK AO2 SLP109
     T01890094 10189 20133 58027 $=


NOAA's National Weather Service
Alaska Aviation Weather Unit
6930 Sand Lake Road
Anchorage, AK 99502-1845
Disclaimer
Credits
Glossary
Privacy Policy
About Us
Career Opportunities
Contact AAWU Internet Services Site last modified: April, 17th 2012